Old Mystic, Connecticut
Current Conditions -  °F | °C
As of 12:56 PM on Thursday 29 Jan 2015 (Local Time) from KGON Reporting Station
Clear Clear  
Wind Chill: 22°   Ceiling: Unl
Heat Index: 27°   Visibility: 10mi
Dew Point: 15°   Wind: 5mph
Humidity: 61%   Direction: 210°SSW
Pressure: 30.25"   Gusts: NA
Location:  41.39°N, 71.96°W
Report Text: KGON 291756Z 21004KT 10SM CLR M03/M09 A3025 RMK AO2 SLP242 T10281094 11017 21133 58026
Loading
Personal Weather Stations






























Interactive Weather Map New forecast layout! Learn more

10-Day Weather Forecast

Advertisements
Track Severe Weather on mobile